sensor_id;sensor_type;location;lat;lon;timestamp;temperature;humidity
21861;DHT22;11095;48.066;8.540;2023-01-30T00:01:18;-5.30;99.90
21861;DHT22;11095;48.066;8.540;2023-01-30T00:03:44;-5.30;99.90
21861;DHT22;11095;48.066;8.540;2023-01-30T00:06:11;-5.30;99.90
21861;DHT22;11095;48.066;8.540;2023-01-30T00:08:36;-5.30;99.90
21861;DHT22;11095;48.066;8.540;2023-01-30T00:11:04;-5.30;99.90
21861;DHT22;11095;48.066;8.540;2023-01-30T00:13:30;-5.30;99.90
21861;DHT22;11095;48.066;8.540;2023-01-30T00:15:55;-5.30;99.90
21861;DHT22;11095;48.066;8.540;2023-01-30T00:18:21;-5.30;99.90
21861;DHT22;11095;48.066;8.540;2023-01-30T00:20:46;-5.40;99.90
21861;DHT22;11095;48.066;8.540;2023-01-30T00:23:12;-5.40;99.90
21861;DHT22;11095;48.066;8.540;2023-01-30T00:25:38;-5.40;99.90
21861;DHT22;11095;48.066;8.540;2023-01-30T00:28:03;-5.40;99.90
21861;DHT22;11095;48.066;8.540;2023-01-30T00:30:29;-5.40;99.90
21861;DHT22;11095;48.066;8.540;2023-01-30T00:32:55;-5.50;99.90
21861;DHT22;11095;48.066;8.540;2023-01-30T00:35:22;-5.50;99.90
21861;DHT22;11095;48.066;8.540;2023-01-30T00:37:56;-5.50;99.90
21861;DHT22;11095;48.066;8.540;2023-01-30T00:40:23;-5.50;99.90
21861;DHT22;11095;48.066;8.540;2023-01-30T00:42:49;-5.60;99.90
21861;DHT22;11095;48.066;8.540;2023-01-30T00:45:33;-5.60;99.90
21861;DHT22;11095;48.066;8.540;2023-01-30T00:48:18;-5.60;99.90
21861;DHT22;11095;48.066;8.540;2023-01-30T00:50:44;-5.60;99.90
21861;DHT22;11095;48.066;8.540;2023-01-30T00:53:11;-5.60;99.90
21861;DHT22;11095;48.066;8.540;2023-01-30T00:55:37;-5.60;99.90
21861;DHT22;11095;48.066;8.540;2023-01-30T00:58:03;-5.60;99.90
21861;DHT22;11095;48.066;8.540;2023-01-30T01:00:29;-5.60;99.90
21861;DHT22;11095;48.066;8.540;2023-01-30T01:02:54;-5.60;99.90
21861;DHT22;11095;48.066;8.540;2023-01-30T01:05:20;-5.60;99.90
21861;DHT22;11095;48.066;8.540;2023-01-30T01:07:45;-5.60;99.90
21861;DHT22;11095;48.066;8.540;2023-01-30T01:10:11;-5.60;99.90
21861;DHT22;11095;48.066;8.540;2023-01-30T01:12:41;-5.60;99.90
21861;DHT22;11095;48.066;8.540;2023-01-30T01:15:08;-5.60;99.90
21861;DHT22;11095;48.066;8.540;2023-01-30T01:17:34;-5.60;99.90
21861;DHT22;11095;48.066;8.540;2023-01-30T01:19:59;-5.60;99.90
21861;DHT22;11095;48.066;8.540;2023-01-30T01:22:25;-5.60;99.90
21861;DHT22;11095;48.066;8.540;2023-01-30T01:24:51;-5.60;99.90
21861;DHT22;11095;48.066;8.540;2023-01-30T01:27:16;-5.60;99.90
21861;DHT22;11095;48.066;8.540;2023-01-30T01:29:43;-5.60;99.90
21861;DHT22;11095;48.066;8.540;2023-01-30T01:32:09;-5.60;99.90
21861;DHT22;11095;48.066;8.540;2023-01-30T01:34:35;-5.60;99.90
21861;DHT22;11095;48.066;8.540;2023-01-30T01:37:00;-5.60;99.90
21861;DHT22;11095;48.066;8.540;2023-01-30T01:39:26;-5.60;99.90
21861;DHT22;11095;48.066;8.540;2023-01-30T01:42:11;-5.70;99.90
21861;DHT22;11095;48.066;8.540;2023-01-30T01:45:08;-5.70;99.90
21861;DHT22;11095;48.066;8.540;2023-01-30T01:48:02;-5.70;99.90
21861;DHT22;11095;48.066;8.540;2023-01-30T01:53:11;-5.70;99.90
21861;DHT22;11095;48.066;8.540;2023-01-30T01:55:38;-5.70;99.90
21861;DHT22;11095;48.066;8.540;2023-01-30T01:58:10;-5.80;99.90
21861;DHT22;11095;48.066;8.540;2023-01-30T02:00:37;-5.80;99.90
21861;DHT22;11095;48.066;8.540;2023-01-30T02:03:06;-5.70;99.90
21861;DHT22;11095;48.066;8.540;2023-01-30T02:05:37;-5.80;99.90
21861;DHT22;11095;48.066;8.540;2023-01-30T02:08:13;-5.80;99.90
21861;DHT22;11095;48.066;8.540;2023-01-30T02:10:47;-5.80;99.90
21861;DHT22;11095;48.066;8.540;2023-01-30T02:13:15;-5.80;99.90
21861;DHT22;11095;48.066;8.540;2023-01-30T02:15:41;-5.80;99.90
21861;DHT22;11095;48.066;8.540;2023-01-30T02:18:07;-5.80;99.90
21861;DHT22;11095;48.066;8.540;2023-01-30T02:20:44;-5.80;99.90
21861;DHT22;11095;48.066;8.540;2023-01-30T02:31:49;-5.80;99.90
21861;DHT22;11095;48.066;8.540;2023-01-30T02:34:28;-5.80;99.90
21861;DHT22;11095;48.066;8.540;2023-01-30T02:37:33;-5.80;99.90
21861;DHT22;11095;48.066;8.540;2023-01-30T02:40:31;-5.80;99.90
21861;DHT22;11095;48.066;8.540;2023-01-30T02:45:57;-5.90;99.90
21861;DHT22;11095;48.066;8.540;2023-01-30T02:48:45;-5.80;99.90
21861;DHT22;11095;48.066;8.540;2023-01-30T02:51:17;-5.80;99.90
21861;DHT22;11095;48.066;8.540;2023-01-30T02:53:46;-5.80;99.90
21861;DHT22;11095;48.066;8.540;2023-01-30T02:56:12;-5.80;99.90
21861;DHT22;11095;48.066;8.540;2023-01-30T02:58:48;-5.80;99.90
21861;DHT22;11095;48.066;8.540;2023-01-30T03:01:34;-5.80;99.90
21861;DHT22;11095;48.066;8.540;2023-01-30T03:09:47;-5.70;99.90
21861;DHT22;11095;48.066;8.540;2023-01-30T03:15:05;-5.70;99.90
21861;DHT22;11095;48.066;8.540;2023-01-30T03:17:35;-5.70;99.90
21861;DHT22;11095;48.066;8.540;2023-01-30T03:20:02;-5.70;99.90
21861;DHT22;11095;48.066;8.540;2023-01-30T03:22:28;-5.70;99.90
21861;DHT22;11095;48.066;8.540;2023-01-30T03:24:54;-5.70;99.90
21861;DHT22;11095;48.066;8.540;2023-01-30T03:27:20;-5.60;99.90
21861;DHT22;11095;48.066;8.540;2023-01-30T03:29:47;-5.60;99.90
21861;DHT22;11095;48.066;8.540;2023-01-30T03:32:12;-5.60;99.90
21861;DHT22;11095;48.066;8.540;2023-01-30T03:34:38;-5.70;99.90
21861;DHT22;11095;48.066;8.540;2023-01-30T03:37:03;-5.70;99.90
21861;DHT22;11095;48.066;8.540;2023-01-30T03:39:29;-5.70;99.90
21861;DHT22;11095;48.066;8.540;2023-01-30T03:41:55;-5.80;99.90
21861;DHT22;11095;48.066;8.540;2023-01-30T03:44:21;-5.80;99.90
21861;DHT22;11095;48.066;8.540;2023-01-30T03:46:47;-5.90;99.90
21861;DHT22;11095;48.066;8.540;2023-01-30T03:49:12;-5.90;99.90
21861;DHT22;11095;48.066;8.540;2023-01-30T03:51:38;-5.90;99.90
21861;DHT22;11095;48.066;8.540;2023-01-30T03:54:04;-5.90;99.90
21861;DHT22;11095;48.066;8.540;2023-01-30T03:56:29;-6.00;99.90
21861;DHT22;11095;48.066;8.540;2023-01-30T03:58:55;-6.10;99.90
21861;DHT22;11095;48.066;8.540;2023-01-30T04:01:21;-6.10;99.90
21861;DHT22;11095;48.066;8.540;2023-01-30T04:03:47;-6.20;99.90
21861;DHT22;11095;48.066;8.540;2023-01-30T04:06:13;-6.30;99.90
21861;DHT22;11095;48.066;8.540;2023-01-30T04:08:38;-6.30;99.90
21861;DHT22;11095;48.066;8.540;2023-01-30T04:11:04;-6.30;99.90
21861;DHT22;11095;48.066;8.540;2023-01-30T04:13:30;-6.30;99.90
21861;DHT22;11095;48.066;8.540;2023-01-30T04:16:28;-6.30;99.90
21861;DHT22;11095;48.066;8.540;2023-01-30T04:18:53;-6.40;99.90
21861;DHT22;11095;48.066;8.540;2023-01-30T04:21:19;-6.40;99.90
21861;DHT22;11095;48.066;8.540;2023-01-30T04:23:45;-6.40;99.90
21861;DHT22;11095;48.066;8.540;2023-01-30T04:26:11;-6.40;99.90
21861;DHT22;11095;48.066;8.540;2023-01-30T04:28:38;-6.40;99.90
21861;DHT22;11095;48.066;8.540;2023-01-30T04:31:05;-6.50;99.90
21861;DHT22;11095;48.066;8.540;2023-01-30T04:33:31;-6.40;99.90
21861;DHT22;11095;48.066;8.540;2023-01-30T04:36:01;-6.40;99.90
21861;DHT22;11095;48.066;8.540;2023-01-30T04:38:28;-6.40;99.90
21861;DHT22;11095;48.066;8.540;2023-01-30T04:40:55;-6.40;99.90
21861;DHT22;11095;48.066;8.540;2023-01-30T04:43:22;-6.40;99.90
21861;DHT22;11095;48.066;8.540;2023-01-30T04:45:49;-6.40;99.90
21861;DHT22;11095;48.066;8.540;2023-01-30T04:48:16;-6.30;99.90
21861;DHT22;11095;48.066;8.540;2023-01-30T04:50:42;-6.30;99.90
21861;DHT22;11095;48.066;8.540;2023-01-30T04:53:09;-6.30;99.90
21861;DHT22;11095;48.066;8.540;2023-01-30T04:55:35;-6.20;99.90
21861;DHT22;11095;48.066;8.540;2023-01-30T04:58:01;-6.10;99.90
21861;DHT22;11095;48.066;8.540;2023-01-30T05:00:27;-6.10;99.90
21861;DHT22;11095;48.066;8.540;2023-01-30T05:02:52;-6.00;99.90
21861;DHT22;11095;48.066;8.540;2023-01-30T05:05:20;-6.00;99.90
21861;DHT22;11095;48.066;8.540;2023-01-30T05:07:46;-6.00;99.90
21861;DHT22;11095;48.066;8.540;2023-01-30T05:10:12;-5.90;99.90
21861;DHT22;11095;48.066;8.540;2023-01-30T05:12:38;-5.90;99.90
21861;DHT22;11095;48.066;8.540;2023-01-30T05:15:04;-6.00;99.90
21861;DHT22;11095;48.066;8.540;2023-01-30T05:17:31;-5.90;99.90
21861;DHT22;11095;48.066;8.540;2023-01-30T05:19:57;-6.00;99.90
21861;DHT22;11095;48.066;8.540;2023-01-30T05:22:22;-5.90;99.90
21861;DHT22;11095;48.066;8.540;2023-01-30T05:24:48;-5.80;99.90
21861;DHT22;11095;48.066;8.540;2023-01-30T05:27:14;-5.80;99.90
21861;DHT22;11095;48.066;8.540;2023-01-30T05:29:40;-5.70;99.90
21861;DHT22;11095;48.066;8.540;2023-01-30T05:32:05;-5.70;99.90
21861;DHT22;11095;48.066;8.540;2023-01-30T05:34:31;-5.60;99.90
21861;DHT22;11095;48.066;8.540;2023-01-30T05:36:57;-5.60;99.90
21861;DHT22;11095;48.066;8.540;2023-01-30T05:39:22;-5.60;99.90
21861;DHT22;11095;48.066;8.540;2023-01-30T05:41:48;-5.50;99.90
21861;DHT22;11095;48.066;8.540;2023-01-30T05:44:13;-5.50;99.90
21861;DHT22;11095;48.066;8.540;2023-01-30T05:46:39;-5.50;99.90
21861;DHT22;11095;48.066;8.540;2023-01-30T05:49:05;-5.60;99.90
21861;DHT22;11095;48.066;8.540;2023-01-30T05:51:32;-5.60;99.90
21861;DHT22;11095;48.066;8.540;2023-01-30T05:53:57;-5.60;99.90
21861;DHT22;11095;48.066;8.540;2023-01-30T05:56:23;-5.60;99.90
21861;DHT22;11095;48.066;8.540;2023-01-30T05:58:53;-5.70;99.90
21861;DHT22;11095;48.066;8.540;2023-01-30T06:01:20;-5.70;99.90
21861;DHT22;11095;48.066;8.540;2023-01-30T06:03:46;-5.70;99.90
21861;DHT22;11095;48.066;8.540;2023-01-30T06:06:12;-5.70;99.90
21861;DHT22;11095;48.066;8.540;2023-01-30T06:08:38;-5.80;99.90
21861;DHT22;11095;48.066;8.540;2023-01-30T06:11:05;-5.70;99.90
21861;DHT22;11095;48.066;8.540;2023-01-30T06:13:33;-5.70;99.90
21861;DHT22;11095;48.066;8.540;2023-01-30T06:15:59;-5.70;99.90
21861;DHT22;11095;48.066;8.540;2023-01-30T06:18:24;-5.60;99.90
21861;DHT22;11095;48.066;8.540;2023-01-30T06:20:51;-5.60;99.90
21861;DHT22;11095;48.066;8.540;2023-01-30T06:23:17;-5.60;99.90
21861;DHT22;11095;48.066;8.540;2023-01-30T06:25:43;-5.50;99.90
21861;DHT22;11095;48.066;8.540;2023-01-30T06:28:10;-5.50;99.90
21861;DHT22;11095;48.066;8.540;2023-01-30T06:30:36;-5.40;99.90
21861;DHT22;11095;48.066;8.540;2023-01-30T06:33:01;-5.30;99.90
21861;DHT22;11095;48.066;8.540;2023-01-30T06:35:27;-5.20;99.90
21861;DHT22;11095;48.066;8.540;2023-01-30T06:37:53;-5.20;99.90
21861;DHT22;11095;48.066;8.540;2023-01-30T06:40:18;-5.20;99.90
21861;DHT22;11095;48.066;8.540;2023-01-30T06:42:45;-5.10;99.90
21861;DHT22;11095;48.066;8.540;2023-01-30T06:45:12;-5.10;99.90
21861;DHT22;11095;48.066;8.540;2023-01-30T06:47:49;-5.20;99.90
21861;DHT22;11095;48.066;8.540;2023-01-30T06:50:17;-5.10;99.90
21861;DHT22;11095;48.066;8.540;2023-01-30T06:52:45;-5.10;99.90
21861;DHT22;11095;48.066;8.540;2023-01-30T06:55:13;-5.10;99.90
21861;DHT22;11095;48.066;8.540;2023-01-30T06:57:39;-5.10;99.90
21861;DHT22;11095;48.066;8.540;2023-01-30T07:00:07;-5.00;99.90
21861;DHT22;11095;48.066;8.540;2023-01-30T07:02:34;-5.00;99.90
21861;DHT22;11095;48.066;8.540;2023-01-30T07:05:01;-4.90;99.90
21861;DHT22;11095;48.066;8.540;2023-01-30T07:07:28;-4.90;99.90
21861;DHT22;11095;48.066;8.540;2023-01-30T07:09:54;-4.80;99.90
21861;DHT22;11095;48.066;8.540;2023-01-30T07:12:19;-4.80;99.90
21861;DHT22;11095;48.066;8.540;2023-01-30T07:14:45;-4.80;99.90
21861;DHT22;11095;48.066;8.540;2023-01-30T07:17:11;-4.80;99.90
21861;DHT22;11095;48.066;8.540;2023-01-30T07:19:36;-4.80;99.90
21861;DHT22;11095;48.066;8.540;2023-01-30T07:22:03;-4.70;99.90
21861;DHT22;11095;48.066;8.540;2023-01-30T07:24:29;-4.70;99.90
21861;DHT22;11095;48.066;8.540;2023-01-30T07:26:55;-4.60;99.90
21861;DHT22;11095;48.066;8.540;2023-01-30T07:29:20;-4.50;99.90
21861;DHT22;11095;48.066;8.540;2023-01-30T07:31:46;-4.40;99.90
21861;DHT22;11095;48.066;8.540;2023-01-30T07:34:12;-4.40;99.90
21861;DHT22;11095;48.066;8.540;2023-01-30T07:36:37;-4.30;99.90
21861;DHT22;11095;48.066;8.540;2023-01-30T07:39:04;-4.20;99.90
21861;DHT22;11095;48.066;8.540;2023-01-30T07:41:30;-3.90;99.90
21861;DHT22;11095;48.066;8.540;2023-01-30T07:43:55;-3.10;99.90
21861;DHT22;11095;48.066;8.540;2023-01-30T07:46:21;-2.70;99.90
21861;DHT22;11095;48.066;8.540;2023-01-30T07:48:47;-2.10;99.90
21861;DHT22;11095;48.066;8.540;2023-01-30T07:51:12;-0.90;99.90
21861;DHT22;11095;48.066;8.540;2023-01-30T07:53:38;0.20;99.90
21861;DHT22;11095;48.066;8.540;2023-01-30T07:56:08;0.80;99.90
21861;DHT22;11095;48.066;8.540;2023-01-30T07:58:33;0.30;99.90
21861;DHT22;11095;48.066;8.540;2023-01-30T08:00:59;-0.20;99.90
21861;DHT22;11095;48.066;8.540;2023-01-30T08:03:25;-0.70;99.90
21861;DHT22;11095;48.066;8.540;2023-01-30T08:05:50;-1.00;99.90
21861;DHT22;11095;48.066;8.540;2023-01-30T08:08:17;-1.00;99.90
21861;DHT22;11095;48.066;8.540;2023-01-30T08:10:43;-0.70;99.90
21861;DHT22;11095;48.066;8.540;2023-01-30T08:13:09;-0.50;99.90
21861;DHT22;11095;48.066;8.540;2023-01-30T08:15:34;-0.30;99.90
21861;DHT22;11095;48.066;8.540;2023-01-30T08:18:00;-0.40;99.90
21861;DHT22;11095;48.066;8.540;2023-01-30T08:20:26;-0.40;99.90
21861;DHT22;11095;48.066;8.540;2023-01-30T08:22:52;-0.50;99.90
21861;DHT22;11095;48.066;8.540;2023-01-30T08:25:19;-0.60;99.90
21861;DHT22;11095;48.066;8.540;2023-01-30T08:27:44;-0.60;99.90
21861;DHT22;11095;48.066;8.540;2023-01-30T08:30:11;-0.60;99.90
21861;DHT22;11095;48.066;8.540;2023-01-30T08:32:36;-0.60;99.90
21861;DHT22;11095;48.066;8.540;2023-01-30T08:35:02;-0.20;99.90
21861;DHT22;11095;48.066;8.540;2023-01-30T08:37:28;0.80;99.90
21861;DHT22;11095;48.066;8.540;2023-01-30T08:39:54;1.60;99.90
21861;DHT22;11095;48.066;8.540;2023-01-30T08:42:19;2.50;99.90
21861;DHT22;11095;48.066;8.540;2023-01-30T08:44:45;3.20;99.90
21861;DHT22;11095;48.066;8.540;2023-01-30T08:47:10;4.20;99.90
21861;DHT22;11095;48.066;8.540;2023-01-30T08:49:36;5.30;99.90
21861;DHT22;11095;48.066;8.540;2023-01-30T08:52:02;6.00;99.90
21861;DHT22;11095;48.066;8.540;2023-01-30T08:54:27;6.50;99.90
21861;DHT22;11095;48.066;8.540;2023-01-30T08:56:53;6.40;99.90
21861;DHT22;11095;48.066;8.540;2023-01-30T08:59:18;6.00;99.90
21861;DHT22;11095;48.066;8.540;2023-01-30T09:01:44;5.90;99.90
21861;DHT22;11095;48.066;8.540;2023-01-30T09:04:09;5.60;99.90
21861;DHT22;11095;48.066;8.540;2023-01-30T09:06:35;5.30;99.90
21861;DHT22;11095;48.066;8.540;2023-01-30T09:09:01;5.70;99.90
21861;DHT22;11095;48.066;8.540;2023-01-30T09:11:26;5.70;99.90
21861;DHT22;11095;48.066;8.540;2023-01-30T09:13:52;6.00;99.90
21861;DHT22;11095;48.066;8.540;2023-01-30T09:16:18;6.40;99.90
21861;DHT22;11095;48.066;8.540;2023-01-30T09:18:44;5.80;99.90
21861;DHT22;11095;48.066;8.540;2023-01-30T09:21:11;5.10;99.90
21861;DHT22;11095;48.066;8.540;2023-01-30T09:23:37;4.10;99.90
21861;DHT22;11095;48.066;8.540;2023-01-30T09:26:04;3.60;99.90
21861;DHT22;11095;48.066;8.540;2023-01-30T09:28:30;3.10;99.90
21861;DHT22;11095;48.066;8.540;2023-01-30T09:30:59;2.70;99.90
21861;DHT22;11095;48.066;8.540;2023-01-30T09:33:25;2.40;99.90
21861;DHT22;11095;48.066;8.540;2023-01-30T09:35:51;2.40;99.90
21861;DHT22;11095;48.066;8.540;2023-01-30T09:38:17;2.60;99.90
21861;DHT22;11095;48.066;8.540;2023-01-30T09:46:13;2.70;99.90
21861;DHT22;11095;48.066;8.540;2023-01-30T09:49:07;2.80;99.90
21861;DHT22;11095;48.066;8.540;2023-01-30T09:54:25;3.80;99.90
21861;DHT22;11095;48.066;8.540;2023-01-30T10:02:43;5.50;99.90
21861;DHT22;11095;48.066;8.540;2023-01-30T10:05:11;5.60;99.90
21861;DHT22;11095;48.066;8.540;2023-01-30T10:07:54;6.10;99.90
21861;DHT22;11095;48.066;8.540;2023-01-30T10:15:51;5.40;99.90
21861;DHT22;11095;48.066;8.540;2023-01-30T10:21:47;4.90;99.90
21861;DHT22;11095;48.066;8.540;2023-01-30T10:27:01;4.50;99.90
21861;DHT22;11095;48.066;8.540;2023-01-30T10:29:33;4.40;99.90
21861;DHT22;11095;48.066;8.540;2023-01-30T10:32:14;4.00;99.90
21861;DHT22;11095;48.066;8.540;2023-01-30T10:34:46;3.80;99.90
21861;DHT22;11095;48.066;8.540;2023-01-30T10:37:25;3.50;99.90
21861;DHT22;11095;48.066;8.540;2023-01-30T10:45:08;3.20;99.90
21861;DHT22;11095;48.066;8.540;2023-01-30T10:47:57;3.20;99.90
21861;DHT22;11095;48.066;8.540;2023-01-30T10:53:41;3.30;99.90
21861;DHT22;11095;48.066;8.540;2023-01-30T10:56:17;3.20;99.90
21861;DHT22;11095;48.066;8.540;2023-01-30T10:59:17;3.00;99.90
21861;DHT22;11095;48.066;8.540;2023-01-30T11:01:44;2.90;99.90
21861;DHT22;11095;48.066;8.540;2023-01-30T11:04:29;2.70;99.90
21861;DHT22;11095;48.066;8.540;2023-01-30T11:06:57;2.50;99.90
21861;DHT22;11095;48.066;8.540;2023-01-30T11:09:45;2.50;99.90
21861;DHT22;11095;48.066;8.540;2023-01-30T11:12:12;2.50;99.90
21861;DHT22;11095;48.066;8.540;2023-01-30T11:14:58;2.70;99.90
21861;DHT22;11095;48.066;8.540;2023-01-30T11:17:34;3.00;99.90
21861;DHT22;11095;48.066;8.540;2023-01-30T11:20:04;3.20;99.90
21861;DHT22;11095;48.066;8.540;2023-01-30T11:22:33;3.10;99.90
21861;DHT22;11095;48.066;8.540;2023-01-30T11:25:08;3.10;99.90
21861;DHT22;11095;48.066;8.540;2023-01-30T11:27:35;3.10;99.90
21861;DHT22;11095;48.066;8.540;2023-01-30T11:30:15;3.10;99.90
21861;DHT22;11095;48.066;8.540;2023-01-30T11:32:43;3.00;99.90
21861;DHT22;11095;48.066;8.540;2023-01-30T11:37:36;3.00;99.90
21861;DHT22;11095;48.066;8.540;2023-01-30T11:40:20;3.10;99.90
21861;DHT22;11095;48.066;8.540;2023-01-30T11:42:50;3.00;99.90
21861;DHT22;11095;48.066;8.540;2023-01-30T11:45:17;3.20;99.90
21861;DHT22;11095;48.066;8.540;2023-01-30T11:47:53;3.20;99.90
21861;DHT22;11095;48.066;8.540;2023-01-30T11:50:24;3.40;99.90
21861;DHT22;11095;48.066;8.540;2023-01-30T11:52:51;3.60;99.90
21861;DHT22;11095;48.066;8.540;2023-01-30T11:55:19;3.60;99.90
21861;DHT22;11095;48.066;8.540;2023-01-30T11:57:49;3.50;99.90
21861;DHT22;11095;48.066;8.540;2023-01-30T12:00:20;3.50;99.90
21861;DHT22;11095;48.066;8.540;2023-01-30T12:02:49;3.50;99.90
21861;DHT22;11095;48.066;8.540;2023-01-30T12:05:33;3.40;99.90
21861;DHT22;11095;48.066;8.540;2023-01-30T12:08:42;3.40;99.90
21861;DHT22;11095;48.066;8.540;2023-01-30T12:11:30;3.30;99.90
21861;DHT22;11095;48.066;8.540;2023-01-30T12:25:00;3.40;99.90
21861;DHT22;11095;48.066;8.540;2023-01-30T12:30:37;3.30;99.90
21861;DHT22;11095;48.066;8.540;2023-01-30T12:33:11;3.40;99.90
21861;DHT22;11095;48.066;8.540;2023-01-30T12:35:48;3.40;99.90
21861;DHT22;11095;48.066;8.540;2023-01-30T12:41:20;3.50;99.90
21861;DHT22;11095;48.066;8.540;2023-01-30T12:43:57;3.50;99.90
21861;DHT22;11095;48.066;8.540;2023-01-30T12:57:43;3.40;99.90
21861;DHT22;11095;48.066;8.540;2023-01-30T13:03:44;3.40;99.90
21861;DHT22;11095;48.066;8.540;2023-01-30T13:12:18;3.40;99.90
21861;DHT22;11095;48.066;8.540;2023-01-30T13:15:12;3.50;99.90
21861;DHT22;11095;48.066;8.540;2023-01-30T13:17:58;3.50;99.90
21861;DHT22;11095;48.066;8.540;2023-01-30T13:23:19;3.40;99.90
21861;DHT22;11095;48.066;8.540;2023-01-30T13:26:11;3.40;99.90
21861;DHT22;11095;48.066;8.540;2023-01-30T13:28:58;3.30;99.90
21861;DHT22;11095;48.066;8.540;2023-01-30T13:31:30;3.20;99.90
21861;DHT22;11095;48.066;8.540;2023-01-30T13:34:32;3.10;99.90
21861;DHT22;11095;48.066;8.540;2023-01-30T13:37:06;3.20;99.90
21861;DHT22;11095;48.066;8.540;2023-01-30T13:39:39;3.20;99.90
21861;DHT22;11095;48.066;8.540;2023-01-30T13:42:16;3.20;99.90
21861;DHT22;11095;48.066;8.540;2023-01-30T13:44:46;3.30;99.90
21861;DHT22;11095;48.066;8.540;2023-01-30T13:47:22;3.30;99.90
21861;DHT22;11095;48.066;8.540;2023-01-30T13:53:24;3.30;99.90
21861;DHT22;11095;48.066;8.540;2023-01-30T13:56:02;3.40;99.90
21861;DHT22;11095;48.066;8.540;2023-01-30T13:58:52;3.50;99.90
21861;DHT22;11095;48.066;8.540;2023-01-30T14:01:20;3.50;99.90
21861;DHT22;11095;48.066;8.540;2023-01-30T14:03:47;3.70;99.90
21861;DHT22;11095;48.066;8.540;2023-01-30T14:06:35;3.80;99.90
21861;DHT22;11095;48.066;8.540;2023-01-30T14:09:15;3.90;99.90
21861;DHT22;11095;48.066;8.540;2023-01-30T14:11:56;3.90;99.90
21861;DHT22;11095;48.066;8.540;2023-01-30T14:14:28;3.80;99.90
21861;DHT22;11095;48.066;8.540;2023-01-30T14:17:07;3.70;99.90
21861;DHT22;11095;48.066;8.540;2023-01-30T14:22:16;3.40;99.90
21861;DHT22;11095;48.066;8.540;2023-01-30T14:24:42;3.50;99.90
21861;DHT22;11095;48.066;8.540;2023-01-30T14:27:22;3.40;99.90
21861;DHT22;11095;48.066;8.540;2023-01-30T14:29:49;3.40;99.90
21861;DHT22;11095;48.066;8.540;2023-01-30T14:35:15;3.30;99.90
21861;DHT22;11095;48.066;8.540;2023-01-30T14:59:29;2.60;99.90
21861;DHT22;11095;48.066;8.540;2023-01-30T15:07:31;2.40;99.90
21861;DHT22;11095;48.066;8.540;2023-01-30T15:20:53;2.10;99.90
21861;DHT22;11095;48.066;8.540;2023-01-30T15:26:29;2.10;99.90
21861;DHT22;11095;48.066;8.540;2023-01-30T15:31:57;2.00;99.90
21861;DHT22;11095;48.066;8.540;2023-01-30T15:34:27;1.90;99.90
21861;DHT22;11095;48.066;8.540;2023-01-30T15:36:53;1.80;99.90
21861;DHT22;11095;48.066;8.540;2023-01-30T15:39:28;1.80;99.90
21861;DHT22;11095;48.066;8.540;2023-01-30T15:42:05;1.70;99.90
21861;DHT22;11095;48.066;8.540;2023-01-30T15:45:01;1.70;99.90
21861;DHT22;11095;48.066;8.540;2023-01-30T15:50:15;1.60;99.90
21861;DHT22;11095;48.066;8.540;2023-01-30T15:52:46;1.60;99.90
21861;DHT22;11095;48.066;8.540;2023-01-30T15:55:29;1.50;99.90
21861;DHT22;11095;48.066;8.540;2023-01-30T15:57:58;1.50;99.90
21861;DHT22;11095;48.066;8.540;2023-01-30T16:00:29;1.40;99.90
21861;DHT22;11095;48.066;8.540;2023-01-30T16:02:56;1.40;99.90
21861;DHT22;11095;48.066;8.540;2023-01-30T16:05:24;1.40;99.90
21861;DHT22;11095;48.066;8.540;2023-01-30T16:07:52;1.40;99.90
21861;DHT22;11095;48.066;8.540;2023-01-30T16:10:29;1.40;99.90
21861;DHT22;11095;48.066;8.540;2023-01-30T16:12:56;1.40;99.90
21861;DHT22;11095;48.066;8.540;2023-01-30T16:15:40;1.40;99.90
21861;DHT22;11095;48.066;8.540;2023-01-30T16:20:48;1.30;99.90
21861;DHT22;11095;48.066;8.540;2023-01-30T16:23:23;1.30;99.90
21861;DHT22;11095;48.066;8.540;2023-01-30T16:25:52;1.30;99.90
21861;DHT22;11095;48.066;8.540;2023-01-30T16:28:26;1.40;99.90
21861;DHT22;11095;48.066;8.540;2023-01-30T16:31:01;1.40;99.90
21861;DHT22;11095;48.066;8.540;2023-01-30T16:33:28;1.30;99.90
21861;DHT22;11095;48.066;8.540;2023-01-30T16:36:01;1.30;99.90
21861;DHT22;11095;48.066;8.540;2023-01-30T16:40:52;1.30;99.90
21861;DHT22;11095;48.066;8.540;2023-01-30T16:43:21;1.30;99.90
21861;DHT22;11095;48.066;8.540;2023-01-30T16:53:23;1.30;99.90
21861;DHT22;11095;48.066;8.540;2023-01-30T16:56:13;1.30;99.90
21861;DHT22;11095;48.066;8.540;2023-01-30T16:58:39;1.30;99.90
21861;DHT22;11095;48.066;8.540;2023-01-30T17:01:06;1.30;99.90
21861;DHT22;11095;48.066;8.540;2023-01-30T17:03:38;1.40;99.90
21861;DHT22;11095;48.066;8.540;2023-01-30T17:06:08;1.40;99.90
21861;DHT22;11095;48.066;8.540;2023-01-30T17:08:46;1.40;99.90
21861;DHT22;11095;48.066;8.540;2023-01-30T17:11:35;1.40;99.90
21861;DHT22;11095;48.066;8.540;2023-01-30T17:14:28;1.40;99.90
21861;DHT22;11095;48.066;8.540;2023-01-30T17:17:03;1.40;99.90
21861;DHT22;11095;48.066;8.540;2023-01-30T17:19:32;1.40;99.90
21861;DHT22;11095;48.066;8.540;2023-01-30T17:21:58;1.50;99.90
21861;DHT22;11095;48.066;8.540;2023-01-30T17:24:26;1.50;99.90
21861;DHT22;11095;48.066;8.540;2023-01-30T17:26:58;1.50;99.90
21861;DHT22;11095;48.066;8.540;2023-01-30T17:29:27;1.40;99.90
21861;DHT22;11095;48.066;8.540;2023-01-30T17:31:54;1.50;99.90
21861;DHT22;11095;48.066;8.540;2023-01-30T17:34:20;1.50;99.90
21861;DHT22;11095;48.066;8.540;2023-01-30T17:36:51;1.50;99.90
21861;DHT22;11095;48.066;8.540;2023-01-30T17:39:20;1.50;99.90
21861;DHT22;11095;48.066;8.540;2023-01-30T17:41:46;1.50;99.90
21861;DHT22;11095;48.066;8.540;2023-01-30T17:44:13;1.50;99.90
21861;DHT22;11095;48.066;8.540;2023-01-30T17:46:42;1.50;99.90
21861;DHT22;11095;48.066;8.540;2023-01-30T17:51:39;1.50;99.90
21861;DHT22;11095;48.066;8.540;2023-01-30T17:54:05;1.50;99.90
21861;DHT22;11095;48.066;8.540;2023-01-30T17:56:35;1.50;99.90
21861;DHT22;11095;48.066;8.540;2023-01-30T17:59:07;1.60;99.90
21861;DHT22;11095;48.066;8.540;2023-01-30T18:01:35;1.60;99.90
21861;DHT22;11095;48.066;8.540;2023-01-30T18:04:01;1.60;99.90
21861;DHT22;11095;48.066;8.540;2023-01-30T18:06:27;1.50;99.90
21861;DHT22;11095;48.066;8.540;2023-01-30T18:08:54;1.60;99.90
21861;DHT22;11095;48.066;8.540;2023-01-30T18:11:20;1.50;99.90
21861;DHT22;11095;48.066;8.540;2023-01-30T18:13:45;1.50;99.90
21861;DHT22;11095;48.066;8.540;2023-01-30T18:16:31;1.50;99.90
21861;DHT22;11095;48.066;8.540;2023-01-30T18:19:01;1.50;99.90
21861;DHT22;11095;48.066;8.540;2023-01-30T18:21:35;1.60;99.90
21861;DHT22;11095;48.066;8.540;2023-01-30T18:24:02;1.60;99.90
21861;DHT22;11095;48.066;8.540;2023-01-30T18:26:28;1.60;99.90
21861;DHT22;11095;48.066;8.540;2023-01-30T18:28:54;1.50;99.90
21861;DHT22;11095;48.066;8.540;2023-01-30T18:31:20;1.50;99.90
21861;DHT22;11095;48.066;8.540;2023-01-30T18:33:49;1.50;99.90
21861;DHT22;11095;48.066;8.540;2023-01-30T18:36:18;1.50;99.90
21861;DHT22;11095;48.066;8.540;2023-01-30T18:38:44;1.50;99.90
21861;DHT22;11095;48.066;8.540;2023-01-30T18:41:19;1.50;99.90
21861;DHT22;11095;48.066;8.540;2023-01-30T18:43:46;1.40;99.90
21861;DHT22;11095;48.066;8.540;2023-01-30T18:46:15;1.50;99.90